Time;durP1;ratioP1;P1;durP2;ratioP2;P2;SDS_P1;SDS_P2;PMS_P1;PMS_P2;Temp;Humidity;BMP_temperature;BMP_pressure;BME280_temperature;BME280_humidity;BME280_pressure;Samples;Min_cycle;Max_cycle;Signal;HPM_P1;HPM_P2
2023/01/02 00:01:39;;;;;;;7.82;1.60;;;14.60;1.00;;;;;;5061426;28;20505;-53
2023/01/02 00:04:05;;;;;;;7.00;2.03;;;14.70;99.90;;;;;;5069402;28;20487;-54
2023/01/02 00:06:34;;;;;;;7.53;1.80;;;14.60;99.90;;;;;;5068498;28;20506;-55
2023/01/02 00:09:01;;;;;;;6.38;1.67;;;14.70;99.90;;;;;;5069521;28;20430;-54
2023/01/02 00:11:27;;;;;;;6.20;1.75;;;14.70;1.00;;;;;;5068929;28;20432;-54
2023/01/02 00:13:53;;;;;;;7.65;2.08;;;14.60;1.00;;;;;;5069728;28;20536;-54
2023/01/02 00:16:18;;;;;;;8.50;1.90;;;14.60;1.00;;;;;;5069060;28;20458;-58
2023/01/02 00:18:44;;;;;;;6.25;1.70;;;14.50;99.90;;;;;;5069342;28;20383;-53
2023/01/02 00:21:10;;;;;;;8.18;1.70;;;14.40;1.00;;;;;;5069298;28;20828;-54
2023/01/02 00:23:35;;;;;;;6.83;1.70;;;14.30;99.90;;;;;;5068553;28;20400;-53
2023/01/02 00:26:01;;;;;;;6.90;1.80;;;14.20;99.90;;;;;;5069419;28;20753;-54
2023/01/02 00:28:27;;;;;;;6.80;1.90;;;14.00;99.90;;;;;;5068602;28;20408;-53
2023/01/02 00:30:53;;;;;;;8.10;1.75;;;14.00;99.90;;;;;;5069422;28;20752;-53
2023/01/02 00:33:18;;;;;;;6.50;1.80;;;13.90;99.90;;;;;;5068812;28;20413;-58
2023/01/02 00:35:44;;;;;;;7.00;2.07;;;13.90;99.90;;;;;;5068452;28;20404;-54
2023/01/02 00:38:09;;;;;;;8.07;1.90;;;13.80;99.90;;;;;;5069056;28;20379;-53
2023/01/02 00:40:35;;;;;;;6.00;1.60;;;13.80;99.90;;;;;;5068499;28;20907;-55
2023/01/02 00:43:01;;;;;;;6.87;1.87;;;13.70;99.90;;;;;;5069234;28;20408;-54
2023/01/02 00:45:27;;;;;;;5.90;1.73;;;13.70;1.00;;;;;;5068280;28;20396;-54
2023/01/02 00:47:52;;;;;;;6.57;1.90;;;13.60;1.00;;;;;;5068796;28;20442;-54
2023/01/02 00:50:18;;;;;;;6.47;1.48;;;13.60;1.00;;;;;;5068831;28;20476;-59
2023/01/02 00:52:44;;;;;;;6.15;2.00;;;13.60;1.00;;;;;;5068378;28;21143;-54
2023/01/02 00:55:10;;;;;;;6.47;1.60;;;13.50;1.00;;;;;;5069136;28;20788;-54
2023/01/02 00:57:35;;;;;;;5.97;1.83;;;13.50;1.00;;;;;;5068440;28;20448;-53
2023/01/02 01:00:01;;;;;;;6.53;1.65;;;13.50;1.00;;;;;;5068938;28;20391;-53
2023/01/02 01:02:27;;;;;;;7.75;2.00;;;13.60;1.00;;;;;;5069405;28;20404;-56
2023/01/02 01:04:52;;;;;;;6.50;2.10;;;13.60;1.00;;;;;;5072380;28;20482;-54
2023/01/02 01:07:18;;;;;;;6.83;1.77;;;13.60;1.00;;;;;;5070661;28;20391;-58
2023/01/02 01:09:44;;;;;;;6.80;2.37;;;13.70;1.00;;;;;;5072084;28;20414;-53
2023/01/02 01:12:09;;;;;;;6.50;1.50;;;13.60;1.00;;;;;;5072163;28;20771;-54
2023/01/02 01:14:35;;;;;;;8.93;1.70;;;13.60;1.00;;;;;;5071611;28;20433;-54
2023/01/02 01:17:00;;;;;;;7.10;1.80;;;13.60;1.00;;;;;;5072706;28;20388;-53
2023/01/02 01:19:33;;;;;;;8.07;1.67;;;13.60;1.00;;;;;;5071417;28;20741;-53
2023/01/02 01:21:59;;;;;;;8.07;1.95;;;13.70;1.00;;;;;;5071929;28;20433;-53
2023/01/02 01:24:25;;;;;;;9.50;2.13;;;13.80;1.00;;;;;;5071366;28;20384;-55
2023/01/02 01:26:51;;;;;;;6.00;1.70;;;13.80;1.00;;;;;;5072270;28;20867;-53
2023/01/02 01:29:16;;;;;;;5.93;1.50;;;13.80;1.00;;;;;;5072016;28;20376;-53
2023/01/02 01:31:42;;;;;;;6.43;1.70;;;13.80;1.00;;;;;;5071724;28;20719;-54
2023/01/02 01:34:11;;;;;;;6.18;1.65;;;13.80;1.00;;;;;;5071808;28;20433;-53
2023/01/02 01:36:37;;;;;;;7.63;1.87;;;13.80;1.00;;;;;;5071282;28;20423;-54
2023/01/02 01:39:02;;;;;;;8.30;1.77;;;13.70;1.00;;;;;;5071674;28;20376;-53
2023/01/02 01:41:28;;;;;;;7.00;1.30;;;13.70;1.00;;;;;;5070945;28;20529;-54
2023/01/02 01:43:59;;;;;;;7.53;1.58;;;13.70;1.00;;;;;;5071621;28;20857;-53
2023/01/02 01:46:41;;;;;;;7.73;1.90;;;13.80;1.00;;;;;;5071023;28;20465;-54
2023/01/02 01:49:10;;;;;;;5.80;1.50;;;13.90;1.00;;;;;;5071700;28;20419;-54
2023/01/02 01:51:41;;;;;;;6.15;1.58;;;13.90;1.00;;;;;;5070790;28;20860;-53
2023/01/02 01:54:11;;;;;;;7.35;1.50;;;13.80;1.00;;;;;;5071591;28;20413;-53
2023/01/02 01:56:41;;;;;;;6.97;1.70;;;13.90;1.00;;;;;;5070840;28;20841;-53
2023/01/02 01:59:09;;;;;;;6.43;1.70;;;14.00;1.00;;;;;;5071633;28;20380;-53
2023/01/02 02:01:34;;;;;;;9.00;1.92;;;13.90;1.00;;;;;;5070445;28;20379;-54
2023/01/02 02:04:00;;;;;;;8.60;1.50;;;14.00;1.00;;;;;;5070840;28;20384;-54
2023/01/02 02:06:27;;;;;;;6.65;1.70;;;13.90;1.00;;;;;;5070247;28;20379;-54
2023/01/02 02:09:16;;;;;;;9.02;1.70;;;13.90;1.00;;;;;;5071063;28;20384;-54
2023/01/02 02:11:44;;;;;;;6.20;1.40;;;13.90;1.00;;;;;;5070366;28;20378;-54
2023/01/02 02:14:09;;;;;;;6.90;1.90;;;13.90;1.00;;;;;;5070677;28;20376;-53
2023/01/02 02:17:04;;;;;;;6.65;1.42;;;14.00;1.00;;;;;;5070395;28;20919;-54
2023/01/02 02:20:02;;;;;;;9.80;1.85;;;14.20;1.00;;;;;;5070031;28;20874;-53
2023/01/02 02:22:53;;;;;;;7.20;1.70;;;14.20;1.00;;;;;;5068850;28;20503;-54
2023/01/02 02:25:22;;;;;;;6.20;1.70;;;14.20;1.00;;;;;;5071016;28;20391;-54
2023/01/02 02:28:10;;;;;;;6.18;1.50;;;14.30;1.00;;;;;;5070483;28;20744;-53
2023/01/02 02:30:54;;;;;;;6.57;1.27;;;14.30;1.00;;;;;;5070562;28;20412;-53
2023/01/02 02:33:42;;;;;;;5.90;1.40;;;14.40;99.90;;;;;;5071157;28;20401;-56
2023/01/02 02:36:33;;;;;;;6.38;1.52;;;14.50;99.90;;;;;;5070462;28;20411;-53
2023/01/02 02:39:36;;;;;;;6.13;1.58;;;14.50;99.90;;;;;;5070593;28;20388;-53
2023/01/02 02:42:24;;;;;;;6.20;1.50;;;14.50;99.90;;;;;;5070659;28;20441;-53
2023/01/02 02:45:16;;;;;;;6.50;1.50;;;14.30;99.90;;;;;;5070594;28;20428;-53
2023/01/02 02:47:52;;;;;;;9.32;1.77;;;14.30;1.00;;;;;;5069900;28;20545;-54
2023/01/02 02:50:38;;;;;;;5.40;1.30;;;14.20;99.90;;;;;;5070332;28;20865;-53
2023/01/02 02:53:13;;;;;;;6.82;1.60;;;14.20;99.90;;;;;;5070626;28;20462;-53
2023/01/02 02:55:44;;;;;;;5.43;1.50;;;14.40;99.90;;;;;;5069841;28;20381;-53
2023/01/02 02:58:12;;;;;;;6.78;1.55;;;14.40;99.90;;;;;;5070397;28;20434;-53
2023/01/02 03:00:38;;;;;;;7.38;2.00;;;14.40;99.90;;;;;;5069662;28;20519;-53
2023/01/02 03:03:18;;;;;;;6.13;1.60;;;14.40;99.90;;;;;;5052537;28;20499;-53
2023/01/02 03:06:04;;;;;;;6.40;1.48;;;14.40;99.90;;;;;;5069817;28;21366;-53
2023/01/02 03:08:54;;;;;;;6.72;1.33;;;14.40;99.90;;;;;;5069466;28;20388;-54
2023/01/02 03:11:25;;;;;;;7.63;2.00;;;14.40;99.90;;;;;;5070158;28;20376;-55
2023/01/02 03:14:09;;;;;;;6.00;1.20;;;14.40;99.90;;;;;;5070322;28;20387;-53
2023/01/02 03:16:45;;;;;;;7.13;1.47;;;14.20;99.90;;;;;;5069265;28;20718;-53
2023/01/02 03:19:29;;;;;;;8.17;1.70;;;14.20;99.90;;;;;;5069627;28;20395;-54
2023/01/02 03:22:23;;;;;;;8.55;1.67;;;14.20;99.90;;;;;;5069618;28;20818;-53
2023/01/02 03:24:52;;;;;;;5.97;1.60;;;14.20;99.90;;;;;;5067308;28;20453;-54
2023/01/02 03:27:22;;;;;;;5.63;1.42;;;14.20;99.90;;;;;;5068936;28;20772;-53
2023/01/02 03:29:56;;;;;;;6.00;1.38;;;14.20;99.90;;;;;;5069731;28;20379;-53
2023/01/02 03:32:35;;;;;;;8.70;1.90;;;14.20;99.90;;;;;;5069775;28;20387;-58
2023/01/02 03:35:09;;;;;;;6.07;1.30;;;14.20;1.00;;;;;;5069455;28;20734;-53
2023/01/02 03:37:39;;;;;;;6.55;1.55;;;14.30;99.90;;;;;;5069215;28;20842;-53
2023/01/02 03:40:11;;;;;;;5.50;1.48;;;14.30;99.90;;;;;;5069591;28;20470;-53
2023/01/02 03:42:53;;;;;;;7.05;1.50;;;14.30;99.90;;;;;;5069100;28;20726;-54
2023/01/02 03:45:30;;;;;;;6.00;1.40;;;14.30;99.90;;;;;;5051674;28;20753;-54
2023/01/02 03:48:01;;;;;;;5.28;1.30;;;14.20;99.90;;;;;;5069795;28;20384;-53
2023/01/02 03:50:33;;;;;;;5.40;1.30;;;14.20;99.90;;;;;;5068759;28;20375;-54
2023/01/02 03:52:59;;;;;;;5.10;1.20;;;14.30;99.90;;;;;;5069459;28;20380;-53
2023/01/02 03:55:28;;;;;;;6.10;1.30;;;14.30;99.90;;;;;;5068566;28;20437;-58
2023/01/02 03:58:05;;;;;;;6.70;1.50;;;14.30;99.90;;;;;;5069509;28;20379;-54
2023/01/02 04:00:55;;;;;;;6.55;1.25;;;14.30;99.90;;;;;;5068949;28;20411;-54
2023/01/02 04:03:32;;;;;;;6.03;1.10;;;14.30;99.90;;;;;;5068763;28;20822;-58
2023/01/02 04:06:11;;;;;;;9.40;1.50;;;14.30;99.90;;;;;;5069661;28;20505;-53
2023/01/02 04:08:48;;;;;;;6.80;1.60;;;14.40;99.90;;;;;;5068654;28;20384;-54
2023/01/02 04:11:18;;;;;;;7.90;1.50;;;14.40;99.90;;;;;;5069510;28;20458;-53
2023/01/02 04:13:48;;;;;;;6.70;1.55;;;14.40;99.90;;;;;;5068817;28;21052;-53
2023/01/02 04:16:20;;;;;;;6.43;1.40;;;14.20;99.90;;;;;;5069325;28;20455;-53
2023/01/02 04:18:53;;;;;;;7.90;1.50;;;14.20;99.90;;;;;;5068914;28;20462;-53
2023/01/02 04:21:25;;;;;;;6.50;1.30;;;14.20;99.90;;;;;;5069243;28;20840;-54
2023/01/02 04:24:32;;;;;;;5.60;1.30;;;14.20;99.90;;;;;;5069296;28;20461;-53
2023/01/02 04:27:12;;;;;;;6.47;1.30;;;14.20;99.90;;;;;;4968084;28;20488;-53
2023/01/02 04:29:38;;;;;;;6.30;1.45;;;14.20;99.90;;;;;;5061297;28;20391;-54
2023/01/02 04:32:11;;;;;;;6.90;1.30;;;14.20;99.90;;;;;;5069032;28;20379;-55
2023/01/02 04:34:39;;;;;;;8.70;1.57;;;14.30;99.90;;;;;;5067965;28;20451;-54
2023/01/02 04:37:05;;;;;;;7.50;1.30;;;14.30;99.90;;;;;;5070069;28;20833;-54
2023/01/02 04:39:31;;;;;;;9.43;1.52;;;14.30;99.90;;;;;;5072291;28;20376;-54
2023/01/02 04:41:57;;;;;;;6.40;1.50;;;14.30;99.90;;;;;;5072936;28;20485;-54
2023/01/02 04:44:23;;;;;;;5.85;1.50;;;14.20;99.90;;;;;;5072730;28;20796;-58
2023/01/02 04:46:48;;;;;;;6.80;1.80;;;14.20;99.90;;;;;;5054707;28;20430;-53
2023/01/02 04:49:14;;;;;;;6.45;1.23;;;14.10;99.90;;;;;;5072822;28;20449;-54
2023/01/02 04:51:39;;;;;;;7.63;1.40;;;14.10;99.90;;;;;;5072505;28;20900;-53
2023/01/02 04:54:05;;;;;;;6.83;1.60;;;14.10;99.90;;;;;;5072813;28;20466;-53
2023/01/02 04:56:31;;;;;;;7.50;1.60;;;14.00;99.90;;;;;;5072254;28;20415;-54
2023/01/02 04:58:56;;;;;;;8.45;1.83;;;14.10;99.90;;;;;;5072638;28;20874;-53
2023/01/02 05:01:22;;;;;;;6.83;1.50;;;14.10;99.90;;;;;;5072607;28;20376;-55
2023/01/02 05:03:50;;;;;;;7.00;1.53;;;14.10;99.90;;;;;;5071777;28;20813;-54
2023/01/02 05:06:15;;;;;;;5.10;1.20;;;14.20;99.90;;;;;;5072363;28;20388;-55
2023/01/02 05:08:41;;;;;;;8.25;1.70;;;14.20;99.90;;;;;;5071847;28;20786;-53
2023/01/02 05:11:16;;;;;;;8.23;1.37;;;14.20;99.90;;;;;;5072575;28;20433;-53
2023/01/02 05:13:41;;;;;;;7.53;1.55;;;14.30;99.90;;;;;;5071718;28;20388;-53
2023/01/02 05:16:08;;;;;;;7.30;1.65;;;14.30;99.90;;;;;;5072043;28;20387;-54
2023/01/02 05:18:33;;;;;;;6.90;1.33;;;14.20;99.90;;;;;;5071391;28;20390;-54
2023/01/02 05:21:01;;;;;;;6.83;1.60;;;14.30;99.90;;;;;;5072491;28;20737;-54
2023/01/02 05:26:11;;;;;;;7.18;1.60;;;14.20;99.90;;;;;;5072224;28;20510;-53
2023/01/02 05:28:37;;;;;;;6.93;1.52;;;14.20;99.90;;;;;;5071310;28;20386;-54
2023/01/02 05:31:03;;;;;;;6.20;1.40;;;14.10;99.90;;;;;;5072333;28;20450;-54
2023/01/02 05:33:28;;;;;;;8.40;1.37;;;14.10;99.90;;;;;;5071324;28;20441;-54
2023/01/02 05:35:54;;;;;;;7.10;1.40;;;14.00;99.90;;;;;;5071833;28;20403;-54
2023/01/02 05:38:19;;;;;;;7.03;1.50;;;13.90;99.90;;;;;;5072374;28;20422;-52
2023/01/02 05:40:45;;;;;;;5.90;1.30;;;13.90;99.90;;;;;;5071011;28;20376;-54
2023/01/02 05:43:10;;;;;;;5.40;1.25;;;13.90;99.90;;;;;;5071889;28;20895;-55
2023/01/02 05:45:36;;;;;;;6.77;1.40;;;13.80;99.90;;;;;;5071141;28;20873;-53
2023/01/02 05:48:02;;;;;;;8.50;1.30;;;13.90;99.90;;;;;;5071718;28;20383;-53
2023/01/02 05:50:27;;;;;;;6.13;1.40;;;13.80;99.90;;;;;;5070137;28;20380;-55
2023/01/02 05:52:54;;;;;;;6.80;1.80;;;13.80;99.90;;;;;;5071727;28;20388;-54
2023/01/02 05:55:20;;;;;;;8.80;1.40;;;13.80;99.90;;;;;;5072203;28;20720;-53
2023/01/02 05:57:46;;;;;;;5.73;1.50;;;13.90;99.90;;;;;;5071242;28;20375;-53
2023/01/02 06:00:12;;;;;;;7.40;1.48;;;13.90;99.90;;;;;;5071652;28;20387;-52
2023/01/02 06:02:37;;;;;;;6.40;1.63;;;13.90;99.90;;;;;;5070807;28;20949;-53
2023/01/02 06:05:04;;;;;;;7.40;1.60;;;13.80;99.90;;;;;;5071097;28;20396;-53
2023/01/02 06:07:29;;;;;;;7.57;1.55;;;13.80;99.90;;;;;;5070540;28;20380;-53
2023/01/02 06:09:55;;;;;;;8.67;1.87;;;13.70;99.90;;;;;;5071467;28;20509;-53
2023/01/02 06:12:20;;;;;;;7.85;1.50;;;13.70;99.90;;;;;;5071516;28;20376;-53
2023/01/02 06:14:46;;;;;;;8.60;1.90;;;13.70;99.90;;;;;;5052566;28;20674;-53
2023/01/02 06:17:11;;;;;;;7.13;1.70;;;13.80;99.90;;;;;;5071083;28;20378;-52
2023/01/02 06:19:37;;;;;;;6.22;1.40;;;13.90;99.90;;;;;;5052633;28;20938;-52
2023/01/02 06:22:03;;;;;;;7.25;1.77;;;14.00;99.90;;;;;;5071064;28;20458;-53
2023/01/02 06:24:28;;;;;;;7.57;1.50;;;13.90;99.90;;;;;;5070387;28;20415;-54
2023/01/02 06:26:54;;;;;;;9.02;1.65;;;13.80;99.90;;;;;;5071071;28;20715;-53
2023/01/02 06:29:20;;;;;;;7.68;1.80;;;13.70;99.90;;;;;;5070945;28;20434;-54
2023/01/02 06:31:46;;;;;;;8.05;1.80;;;13.70;99.90;;;;;;5070062;28;20383;-53
2023/01/02 06:34:12;;;;;;;5.97;1.50;;;13.50;99.90;;;;;;5070682;28;20395;-54
2023/01/02 06:36:37;;;;;;;6.70;1.70;;;13.40;99.90;;;;;;5070207;28;20861;-54
2023/01/02 06:39:03;;;;;;;9.83;2.10;;;13.20;99.90;;;;;;5052812;28;20949;-54
2023/01/02 06:41:29;;;;;;;8.80;2.10;;;13.00;99.90;;;;;;5069580;28;20486;-52
2023/01/02 06:43:54;;;;;;;6.07;1.40;;;12.80;99.90;;;;;;5069943;28;20443;-51
2023/01/02 06:46:22;;;;;;;7.55;2.03;;;12.80;99.90;;;;;;5070576;28;20427;-51
2023/01/02 06:48:48;;;;;;;6.45;1.80;;;12.90;99.90;;;;;;5069923;28;20421;-51
2023/01/02 06:51:19;;;;;;;7.10;1.70;;;13.00;99.90;;;;;;5052407;28;20384;-51
2023/01/02 06:53:45;;;;;;;9.98;1.90;;;13.00;99.90;;;;;;5069486;28;20379;-51
2023/01/02 06:56:14;;;;;;;7.30;1.88;;;12.90;99.90;;;;;;5070051;28;20425;-51
2023/01/02 06:58:39;;;;;;;7.00;1.50;;;12.70;99.90;;;;;;5069333;28;20469;-52
2023/01/02 07:01:20;;;;;;;8.57;2.08;;;12.60;99.90;;;;;;5070338;28;20890;-52
2023/01/02 07:03:46;;;;;;;8.50;1.70;;;12.30;99.90;;;;;;5048194;28;20406;-52
2023/01/02 07:06:15;;;;;;;8.13;1.40;;;12.30;99.90;;;;;;5048194;28;20827;-52
2023/01/02 07:08:42;;;;;;;6.10;1.77;;;12.20;99.90;;;;;;5069477;28;20865;-52
2023/01/02 07:11:17;;;;;;;8.10;1.90;;;12.00;99.90;;;;;;5069500;28;20784;-52
2023/01/02 07:13:44;;;;;;;9.73;1.60;;;11.90;99.90;;;;;;5069156;28;20489;-54
2023/01/02 07:16:13;;;;;;;7.80;1.88;;;11.80;99.90;;;;;;5070389;28;20394;-52
2023/01/02 07:18:39;;;;;;;9.80;1.80;;;11.90;99.90;;;;;;5068021;28;20465;-52
2023/01/02 07:21:06;;;;;;;7.63;1.70;;;12.10;99.90;;;;;;5064670;28;20930;-56
2023/01/02 07:23:32;;;;;;;10.00;1.90;;;12.10;99.90;;;;;;5069105;28;20400;-56
2023/01/02 07:26:00;;;;;;;6.43;2.00;;;12.20;99.90;;;;;;5069760;28;20525;-55
2023/01/02 07:28:27;;;;;;;7.43;2.17;;;12.10;99.90;;;;;;5068726;28;20437;-59
2023/01/02 07:30:56;;;;;;;9.93;2.33;;;12.10;99.90;;;;;;5062605;28;20898;-56
2023/01/02 07:33:22;;;;;;;7.10;1.70;;;12.10;99.90;;;;;;5067415;28;20947;-56
2023/01/02 07:35:47;;;;;;;8.07;2.70;;;12.10;99.90;;;;;;5068654;28;20546;-56
2023/01/02 07:38:13;;;;;;;6.80;1.90;;;11.90;99.90;;;;;;5069948;28;20386;-58
2023/01/02 07:40:39;;;;;;;5.90;1.50;;;11.70;99.90;;;;;;5068764;28;20860;-57
2023/01/02 07:43:04;;;;;;;7.53;2.30;;;11.60;99.90;;;;;;5069623;28;20446;-57
2023/01/02 07:45:32;;;;;;;9.13;2.13;;;11.50;1.00;;;;;;5068807;28;20394;-55
2023/01/02 07:47:57;;;;;;;6.22;1.83;;;11.50;1.00;;;;;;5067800;28;20396;-54
2023/01/02 07:50:23;;;;;;;7.10;1.88;;;11.40;1.00;;;;;;5063483;28;20398;-55
2023/01/02 07:52:49;;;;;;;7.40;1.60;;;11.40;1.00;;;;;;5068824;28;20445;-54
2023/01/02 07:55:14;;;;;;;6.20;1.90;;;11.40;1.00;;;;;;5068259;28;20752;-54
2023/01/02 07:57:40;;;;;;;6.38;1.55;;;11.40;1.00;;;;;;5069549;28;20391;-54
2023/01/02 08:00:06;;;;;;;11.90;2.00;;;11.50;1.00;;;;;;5071382;28;20671;-51
2023/01/02 08:02:32;;;;;;;7.45;2.00;;;11.50;1.00;;;;;;5070177;28;20741;-51
2023/01/02 08:04:57;;;;;;;7.45;1.63;;;11.40;1.00;;;;;;5075673;28;20401;-52
2023/01/02 08:07:23;;;;;;;6.20;1.90;;;11.50;1.00;;;;;;5069362;28;20470;-54
2023/01/02 08:09:48;;;;;;;7.10;2.10;;;11.50;1.00;;;;;;5070244;28;20375;-52
2023/01/02 08:12:14;;;;;;;6.70;1.75;;;11.50;1.00;;;;;;5071801;28;20853;-52
2023/01/02 08:14:39;;;;;;;8.57;1.70;;;11.50;1.00;;;;;;5076375;28;20380;-54
2023/01/02 08:17:05;;;;;;;6.20;1.60;;;11.40;1.00;;;;;;5075102;28;20467;-54
2023/01/02 08:19:31;;;;;;;9.97;2.87;;;11.40;1.00;;;;;;5068132;28;20400;-54
2023/01/02 08:21:56;;;;;;;8.40;2.20;;;11.50;1.00;;;;;;5070357;28;20897;-54
2023/01/02 08:24:22;;;;;;;8.38;1.70;;;11.80;1.00;;;;;;5068827;28;20389;-54
2023/01/02 08:26:47;;;;;;;7.30;1.70;;;11.90;1.00;;;;;;5076595;28;20394;-53
2023/01/02 08:29:13;;;;;;;7.70;1.90;;;12.00;1.00;;;;;;5069438;28;20391;-50
2023/01/02 08:31:38;;;;;;;8.45;2.00;;;12.10;1.00;;;;;;5073234;28;20870;-50
2023/01/02 08:34:04;;;;;;;6.90;1.80;;;12.20;1.00;;;;;;5071786;28;20399;-51
2023/01/02 08:36:30;;;;;;;9.07;1.80;;;12.30;1.00;;;;;;5071484;28;20414;-56
2023/01/02 08:38:55;;;;;;;8.30;1.73;;;12.40;1.00;;;;;;5073300;28;20406;-51
2023/01/02 08:41:37;;;;;;;11.57;1.83;;;12.40;1.00;;;;;;5073068;28;20444;-52
2023/01/02 08:44:04;;;;;;;9.20;2.05;;;12.50;1.00;;;;;;5069393;28;20889;-52
2023/01/02 08:46:30;;;;;;;6.35;1.50;;;12.60;1.00;;;;;;5071630;28;20445;-57
2023/01/02 08:48:56;;;;;;;8.15;1.42;;;12.60;1.00;;;;;;5069525;28;20400;-53
2023/01/02 08:51:22;;;;;;;6.40;1.70;;;12.70;1.00;;;;;;5071315;28;20403;-53
2023/01/02 08:53:48;;;;;;;8.20;1.57;;;12.80;1.00;;;;;;5056078;28;20462;-53
2023/01/02 08:56:20;;;;;;;8.30;2.00;;;12.90;99.90;;;;;;5072414;28;20383;-53
2023/01/02 08:58:53;;;;;;;7.47;1.65;;;12.90;1.00;;;;;;5069982;28;20449;-53
2023/01/02 09:01:19;;;;;;;8.70;1.70;;;12.90;1.00;;;;;;5072274;28;20400;-52
2023/01/02 09:03:44;;;;;;;9.20;2.10;;;12.90;1.00;;;;;;5083439;28;20400;-53
2023/01/02 09:06:10;;;;;;;10.07;2.30;;;13.00;1.00;;;;;;5083547;28;20390;-53
2023/01/02 09:08:36;;;;;;;10.20;2.20;;;13.00;1.00;;;;;;5067438;28;20404;-53
2023/01/02 09:11:12;;;;;;;6.97;1.83;;;13.10;1.00;;;;;;5057486;28;20439;-54
2023/01/02 09:13:38;;;;;;;6.57;2.10;;;13.30;1.00;;;;;;5073349;28;20742;-52
2023/01/02 09:16:04;;;;;;;7.40;2.10;;;13.40;1.00;;;;;;5082994;28;20393;-53
2023/01/02 09:18:29;;;;;;;6.47;2.10;;;14.20;1.00;;;;;;5091821;28;20378;-58
2023/01/02 09:20:55;;;;;;;6.97;1.90;;;14.70;1.00;;;;;;5075806;28;20384;-53
2023/01/02 09:23:20;;;;;;;8.27;2.10;;;14.80;1.00;;;;;;5084238;28;20401;-57
2023/01/02 09:25:46;;;;;;;10.53;2.13;;;14.90;1.00;;;;;;5078653;28;20397;-56
2023/01/02 09:28:12;;;;;;;9.50;2.38;;;15.20;1.00;;;;;;5080145;28;20411;-57
2023/01/02 09:30:37;;;;;;;9.13;2.60;;;15.30;1.00;;;;;;5085850;28;20385;-57
2023/01/02 09:33:03;;;;;;;10.20;2.40;;;15.50;1.00;;;;;;5073260;28;20423;-57
2023/01/02 09:35:28;;;;;;;8.93;2.67;;;16.00;1.00;;;;;;5085906;28;20415;-58
2023/01/02 09:37:54;;;;;;;11.77;2.60;;;16.10;1.00;;;;;;5080474;28;20876;-55
2023/01/02 09:40:20;;;;;;;13.07;2.80;;;16.30;1.00;;;;;;5061129;28;20387;-56
2023/01/02 09:42:49;;;;;;;6.90;1.95;;;16.10;1.00;;;;;;5069606;28;20754;-55
2023/01/02 09:45:14;;;;;;;7.63;2.00;;;15.90;1.00;;;;;;5056297;28;20382;-55
2023/01/02 09:47:41;;;;;;;7.90;2.20;;;15.70;1.00;;;;;;5078145;28;20384;-55
2023/01/02 09:50:15;;;;;;;8.30;2.07;;;15.50;1.00;;;;;;5080324;28;20384;-57
2023/01/02 09:52:44;;;;;;;8.50;2.10;;;15.20;1.00;;;;;;5086002;28;20757;-60
2023/01/02 09:55:29;;;;;;;7.00;2.03;;;15.20;1.00;;;;;;5088034;28;20449;-56
2023/01/02 09:58:15;;;;;;;8.82;2.33;;;15.40;1.00;;;;;;5080942;28;20885;-56
2023/01/02 10:00:43;;;;;;;7.10;1.87;;;15.30;1.00;;;;;;5061987;28;20407;-55
2023/01/02 10:03:41;;;;;;;6.70;2.03;;;15.50;1.00;;;;;;5070785;28;20776;-56
2023/01/02 10:06:16;;;;;;;9.05;2.10;;;15.80;1.00;;;;;;5012077;28;20964;-56
2023/01/02 10:09:08;;;;;;;6.28;2.00;;;16.20;1.00;;;;;;5077540;28;20757;-56
2023/01/02 10:12:01;;;;;;;7.22;2.20;;;16.80;1.00;;;;;;5074571;28;20453;-54
2023/01/02 10:14:32;;;;;;;7.40;2.00;;;17.40;1.00;;;;;;5071269;28;20387;-54
2023/01/02 10:16:59;;;;;;;9.63;2.45;;;17.50;99.90;;;;;;5071237;28;20400;-55
2023/01/02 10:19:47;;;;;;;7.82;2.22;;;17.80;99.90;;;;;;5065909;28;20498;-54
2023/01/02 10:22:19;;;;;;;7.07;2.20;;;18.30;99.90;;;;;;5071673;28;20471;-54
2023/01/02 10:24:49;;;;;;;8.50;2.10;;;19.00;99.90;;;;;;5081405;28;20391;-54
2023/01/02 10:27:23;;;;;;;7.50;2.03;;;19.00;99.90;;;;;;5074310;28;20378;-53
2023/01/02 10:30:21;;;;;;;7.80;2.20;;;18.70;99.90;;;;;;5051233;28;20917;-54
2023/01/02 10:33:20;;;;;;;7.22;2.10;;;19.00;99.90;;;;;;5070300;28;20397;-53
2023/01/02 10:35:55;;;;;;;7.22;1.70;;;18.70;99.90;;;;;;5054643;28;20424;-54
2023/01/02 10:38:21;;;;;;;7.43;1.92;;;18.20;99.90;;;;;;5074113;28;20387;-53
2023/01/02 10:40:49;;;;;;;8.43;1.85;;;17.70;99.90;;;;;;5079808;28;20405;-53
2023/01/02 10:43:15;;;;;;;7.45;2.10;;;17.70;99.90;;;;;;5079479;28;20903;-53
2023/01/02 10:45:42;;;;;;;7.90;1.80;;;17.90;99.90;;;;;;5076103;28;20890;-53
2023/01/02 10:48:10;;;;;;;9.30;1.87;;;17.70;99.90;;;;;;5077615;28;20410;-53
2023/01/02 10:50:41;;;;;;;6.30;1.70;;;17.70;99.90;;;;;;5076882;28;20372;-54
2023/01/02 10:53:27;;;;;;;8.70;1.83;;;17.60;99.90;;;;;;5070473;28;20419;-53
2023/01/02 10:55:53;;;;;;;7.80;1.90;;;17.90;99.90;;;;;;5069492;28;20402;-53
2023/01/02 10:58:26;;;;;;;8.67;2.27;;;18.20;99.90;;;;;;5070155;28;20705;-53
2023/01/02 11:01:04;;;;;;;9.32;2.10;;;18.50;99.90;;;;;;5069420;28;20719;-53
2023/01/02 11:03:30;;;;;;;7.07;1.80;;;19.30;99.90;;;;;;5069275;28;20407;-59
2023/01/02 11:05:57;;;;;;;8.40;2.22;;;19.90;99.90;;;;;;5069790;28;20404;-54
2023/01/02 11:08:34;;;;;;;9.07;2.53;;;20.40;99.90;;;;;;5070056;28;20379;-54
2023/01/02 11:11:02;;;;;;;7.47;2.97;;;20.30;99.90;;;;;;5070119;28;20741;-54
2023/01/02 11:13:45;;;;;;;6.43;2.00;;;19.90;99.90;;;;;;5069872;28;20383;-54
2023/01/02 11:16:13;;;;;;;8.20;2.50;;;19.40;99.90;;;;;;5070657;28;20372;-53
2023/01/02 11:18:44;;;;;;;7.30;2.40;;;19.40;99.90;;;;;;5068923;28;20433;-53
2023/01/02 11:21:10;;;;;;;11.02;2.97;;;19.00;99.90;;;;;;5070245;28;20376;-54
2023/01/02 11:23:42;;;;;;;7.90;2.35;;;18.40;99.90;;;;;;5069182;28;20411;-53
2023/01/02 11:26:22;;;;;;;9.00;2.40;;;17.90;99.90;;;;;;5069938;28;20406;-56
2023/01/02 11:28:53;;;;;;;9.52;2.47;;;17.80;99.90;;;;;;5069250;28;20384;-54
2023/01/02 11:31:21;;;;;;;7.10;2.17;;;18.00;99.90;;;;;;5070376;28;20471;-53
2023/01/02 11:33:47;;;;;;;9.68;2.95;;;18.20;99.90;;;;;;5068985;28;20722;-53
2023/01/02 11:36:14;;;;;;;9.53;2.67;;;17.90;99.90;;;;;;5070205;28;20423;-56
2023/01/02 11:38:52;;;;;;;8.73;2.97;;;17.70;99.90;;;;;;5069513;28;20372;-53
2023/01/02 11:44:26;;;;;;;9.85;2.30;;;16.40;99.90;;;;;;5069492;28;20464;-53
2023/01/02 11:46:58;;;;;;;5.93;1.90;;;17.80;99.90;;;;;;5068442;28;20372;-53
2023/01/02 11:49:28;;;;;;;9.32;2.22;;;17.90;99.90;;;;;;5069427;28;20395;-53
2023/01/02 11:51:58;;;;;;;10.13;2.40;;;17.80;99.90;;;;;;5070046;28;20428;-53
2023/01/02 11:54:56;;;;;;;8.40;1.92;;;17.60;99.90;;;;;;5069781;28;20788;-52
2023/01/02 11:57:42;;;;;;;10.55;2.80;;;17.60;99.90;;;;;;5042660;28;20388;-53
2023/01/02 12:00:14;;;;;;;9.07;2.03;;;17.60;99.90;;;;;;5070437;28;20832;-52
2023/01/02 12:02:43;;;;;;;7.63;2.20;;;17.40;99.90;;;;;;5069041;28;20407;-53
2023/01/02 12:05:12;;;;;;;6.80;1.88;;;17.30;99.90;;;;;;5069572;28;20487;-53
2023/01/02 12:08:00;;;;;;;8.68;2.10;;;17.30;99.90;;;;;;5069066;28;20383;-53
2023/01/02 12:10:25;;;;;;;12.43;2.30;;;17.30;99.90;;;;;;5070065;28;20421;-53
2023/01/02 12:13:01;;;;;;;6.50;2.05;;;17.30;99.90;;;;;;5069205;28;20779;-53
2023/01/02 12:15:47;;;;;;;8.32;2.30;;;17.20;99.90;;;;;;5070090;28;20408;-54
2023/01/02 12:18:38;;;;;;;8.00;2.70;;;17.30;99.90;;;;;;5069955;28;20383;-54
2023/01/02 12:21:19;;;;;;;7.77;2.00;;;17.50;99.90;;;;;;5069362;28;20391;-54
2023/01/02 12:24:02;;;;;;;8.30;2.30;;;17.60;99.90;;;;;;5068743;28;20876;-54
2023/01/02 12:26:44;;;;;;;11.88;3.15;;;17.70;99.90;;;;;;5069380;28;20399;-54
2023/01/02 12:29:48;;;;;;;12.40;2.40;;;17.80;99.90;;;;;;5069289;28;20395;-54
2023/01/02 12:32:32;;;;;;;9.98;2.50;;;18.00;99.90;;;;;;5069119;28;20464;-54
2023/01/02 12:35:06;;;;;;;8.98;2.50;;;18.20;99.90;;;;;;5068930;28;20494;-53
2023/01/02 12:37:42;;;;;;;10.25;2.70;;;18.40;99.90;;;;;;5068484;28;20715;-58
2023/01/02 12:40:33;;;;;;;13.83;4.20;;;18.40;99.90;;;;;;5069349;28;20379;-53
2023/01/02 12:43:20;;;;;;;14.07;3.00;;;18.30;99.90;;;;;;5069110;28;20861;-54
2023/01/02 12:46:07;;;;;;;8.00;2.35;;;18.20;99.90;;;;;;5068324;28;20388;-54
2023/01/02 12:49:03;;;;;;;8.50;2.30;;;18.10;99.90;;;;;;5068493;28;20463;-58
2023/01/02 12:51:37;;;;;;;12.13;2.53;;;18.10;99.90;;;;;;5068691;28;20463;-53
2023/01/02 12:54:17;;;;;;;7.90;2.60;;;18.10;99.90;;;;;;5069072;28;20502;-54
2023/01/02 12:57:12;;;;;;;8.73;2.75;;;18.10;99.90;;;;;;5068102;28;20383;-54
2023/01/02 13:00:01;;;;;;;7.40;2.40;;;18.30;99.90;;;;;;5062171;28;20410;-53
2023/01/02 13:02:40;;;;;;;9.90;2.50;;;18.30;99.90;;;;;;5072546;28;20411;-54
2023/01/02 13:05:36;;;;;;;10.65;2.67;;;18.40;99.90;;;;;;5072809;28;20411;-53
2023/01/02 13:08:26;;;;;;;9.38;2.95;;;18.60;99.90;;;;;;5070426;28;20409;-53
2023/01/02 13:10:54;;;;;;;11.98;3.10;;;18.80;99.90;;;;;;5071635;28;21046;-53
2023/01/02 13:13:26;;;;;;;8.85;3.00;;;18.90;99.90;;;;;;5072030;28;20491;-53
2023/01/02 13:15:57;;;;;;;9.07;3.20;;;18.90;99.90;;;;;;5072154;28;20569;-56
2023/01/02 13:18:36;;;;;;;10.27;3.50;;;18.90;99.90;;;;;;5072539;28;20379;-53